createdAt,value
2018-04-24T00:00:46.883Z,101153.77
2018-04-24T00:03:15.163Z,101156.59
2018-04-24T00:05:43.449Z,101146.42
2018-04-24T00:08:12.058Z,101145.33
2018-04-24T00:10:40.334Z,101147.97
2018-04-24T00:13:08.883Z,101147.59
2018-04-24T00:15:37.143Z,101148.20
2018-04-24T00:18:05.416Z,101144.87
2018-04-24T00:20:33.694Z,101141.56
2018-04-24T00:23:01.963Z,101139.70
2018-04-24T00:25:30.242Z,101141.44
2018-04-24T00:27:58.518Z,101139.78
2018-04-24T00:30:26.818Z,101138.98
2018-04-24T00:32:55.090Z,101143.41
2018-04-24T00:35:23.362Z,101144.17
2018-04-24T00:37:51.742Z,101140.38
2018-04-24T00:40:20.015Z,101143.91
2018-04-24T00:42:48.295Z,101136.91
2018-04-24T00:45:16.558Z,101143.84
2018-04-24T00:47:44.842Z,101143.16
2018-04-24T00:50:13.110Z,101139.99
2018-04-24T00:52:41.383Z,101134.81
2018-04-24T00:55:09.662Z,101133.98
2018-04-24T00:57:37.934Z,101137.84
2018-04-24T01:00:06.218Z,101139.13
2018-04-24T01:02:34.485Z,101151.04
2018-04-24T01:05:02.787Z,101153.16
2018-04-24T01:07:31.070Z,101139.98
2018-04-24T01:09:59.369Z,101141.78
2018-04-24T01:12:27.694Z,101135.36
2018-04-24T01:14:55.971Z,101132.49
2018-04-24T01:17:24.549Z,101123.27
2018-04-24T01:19:52.832Z,101120.55
2018-04-24T01:22:21.178Z,101123.67
2018-04-24T01:24:49.458Z,101112.68
2018-04-24T01:27:17.733Z,101109.28
2018-04-24T01:29:46.024Z,101111.08
2018-04-24T01:32:14.310Z,101103.23
2018-04-24T01:34:42.584Z,101105.02
2018-04-24T01:37:10.868Z,101107.23
2018-04-24T01:39:39.515Z,101100.67
2018-04-24T01:42:07.790Z,101105.07
2018-04-24T01:44:36.066Z,101104.59
2018-04-24T01:47:04.347Z,101104.27
2018-04-24T01:49:32.626Z,101113.31
2018-04-24T01:52:00.907Z,101115.43
2018-04-24T01:54:29.183Z,101108.09
2018-04-24T01:56:57.462Z,101103.47
2018-04-24T01:59:25.730Z,101099.08
2018-04-24T02:01:54.015Z,101096.94
2018-04-24T02:04:22.291Z,101112.05
2018-04-24T02:06:50.574Z,101110.73
2018-04-24T02:09:18.861Z,101114.09
2018-04-24T02:11:47.136Z,101115.86
2018-04-24T02:14:15.430Z,101113.70
2018-04-24T02:16:43.738Z,101120.14
2018-04-24T02:19:11.999Z,101118.16
2018-04-24T02:21:40.277Z,101111.72
2018-04-24T02:24:08.559Z,101115.15
2018-04-24T02:26:36.826Z,101121.63
2018-04-24T02:29:05.092Z,101111.25
2018-04-24T02:31:33.371Z,101103.52
2018-04-24T02:34:01.696Z,101108.70
2018-04-24T02:36:29.918Z,101098.33
2018-04-24T02:38:58.205Z,101101.38
2018-04-24T02:41:26.467Z,101100.91
2018-04-24T02:43:54.758Z,101103.98
2018-04-24T02:46:23.033Z,101103.16
2018-04-24T02:48:51.295Z,101096.20
2018-04-24T02:51:19.579Z,101100.95
2018-04-24T02:53:47.859Z,101099.21
2018-04-24T02:56:16.138Z,101098.78
2018-04-24T02:58:44.412Z,101108.30
2018-04-24T03:01:12.679Z,101100.56
2018-04-24T03:03:40.955Z,101085.81
2018-04-24T03:06:09.318Z,101083.63
2018-04-24T03:08:37.582Z,101074.94
2018-04-24T03:11:05.862Z,101085.34
2018-04-24T03:13:34.168Z,101097.05
2018-04-24T03:16:02.445Z,101090.09
2018-04-24T03:18:30.722Z,101087.05
2018-04-24T03:20:58.998Z,101085.77
2018-04-24T03:23:27.270Z,101088.81
2018-04-24T03:25:55.565Z,101073.65
2018-04-24T03:28:23.829Z,101068.45
2018-04-24T03:30:52.122Z,101065.84
2018-04-24T03:33:20.402Z,101065.02
2018-04-24T03:35:48.676Z,101059.78
2018-04-24T03:38:16.954Z,101068.06
2018-04-24T03:40:45.218Z,101069.77
2018-04-24T03:43:13.502Z,101067.14
2018-04-24T03:45:41.770Z,101062.84
2018-04-24T03:48:10.042Z,101062.39
2018-04-24T03:50:38.318Z,101058.51
2018-04-24T03:53:06.590Z,101065.86
2018-04-24T03:55:34.887Z,101061.53
2018-04-24T03:58:03.154Z,101064.13
2018-04-24T04:00:31.442Z,101060.67
2018-04-24T04:02:59.715Z,101058.92
2018-04-24T04:05:27.980Z,101060.61
2018-04-24T04:07:56.257Z,101061.08
2018-04-24T04:10:24.526Z,101062.41
2018-04-24T04:12:52.805Z,101064.59
2018-04-24T04:15:21.079Z,101065.45
2018-04-24T04:18:01.039Z,101059.41
2018-04-24T04:20:40.942Z,101071.09
2018-04-24T04:23:23.659Z,101068.07
2018-04-24T04:25:51.930Z,101065.02
2018-04-24T04:28:20.209Z,101060.27
2018-04-24T04:30:48.491Z,101062.42
2018-04-24T04:33:16.790Z,101068.06
2018-04-24T04:35:45.053Z,101080.64
2018-04-24T04:38:13.328Z,101081.08
2018-04-24T04:40:41.608Z,101083.68
2018-04-24T04:43:09.893Z,101093.65
2018-04-24T04:45:38.162Z,101089.73
2018-04-24T04:48:06.455Z,101097.99
2018-04-24T04:50:34.727Z,101098.85
2018-04-24T04:53:03.009Z,101095.38
2018-04-24T04:55:31.291Z,101097.13
2018-04-24T04:57:59.565Z,101094.95
2018-04-24T05:00:27.853Z,101098.01
2018-04-24T05:02:56.548Z,101095.38
2018-04-24T05:05:24.842Z,101097.55
2018-04-24T05:07:53.118Z,101101.44
2018-04-24T05:10:21.414Z,101102.28
2018-04-24T05:12:49.688Z,101093.63
2018-04-24T05:15:17.962Z,101096.17
2018-04-24T05:17:46.316Z,101102.30
2018-04-24T05:20:14.702Z,101096.23
2018-04-24T05:22:42.862Z,101092.72
2018-04-24T05:25:11.141Z,101093.17
2018-04-24T05:27:39.439Z,101091.00
2018-04-24T05:30:07.718Z,101100.09
2018-04-24T05:32:36.006Z,101108.81
2018-04-24T05:35:04.309Z,101107.48
2018-04-24T05:37:32.596Z,101110.52
2018-04-24T05:40:00.876Z,101106.19
2018-04-24T05:42:31.131Z,101113.59
2018-04-24T05:44:59.404Z,101117.03
2018-04-24T05:47:28.046Z,101112.69
2018-04-24T05:49:56.321Z,101111.78
2018-04-24T05:52:24.620Z,101114.02
2018-04-24T05:54:52.896Z,101117.40
2018-04-24T05:57:21.166Z,101122.20
2018-04-24T05:59:49.455Z,101120.42
2018-04-24T06:02:17.731Z,101125.17
2018-04-24T06:04:46.015Z,101130.02
2018-04-24T06:07:14.372Z,101137.37
2018-04-24T06:09:42.662Z,101134.76
2018-04-24T06:12:10.935Z,101139.53
2018-04-24T06:14:39.523Z,101144.22
2018-04-24T06:17:07.798Z,101142.53
2018-04-24T06:19:36.063Z,101147.27
2018-04-24T06:22:04.348Z,101143.68
2018-04-24T06:24:32.619Z,101152.66
2018-04-24T06:27:00.905Z,101142.28
2018-04-24T06:29:29.211Z,101145.42
2018-04-24T06:31:57.498Z,101144.25
2018-04-24T06:34:25.780Z,101135.88
2018-04-24T06:36:54.070Z,101141.13
2018-04-24T06:39:22.375Z,101144.32
2018-04-24T06:41:50.641Z,101141.92
2018-04-24T06:44:18.982Z,101133.66
2018-04-24T06:46:47.260Z,101131.92
2018-04-24T06:49:15.565Z,101125.05
2018-04-24T06:51:43.836Z,101125.92
2018-04-24T06:54:12.117Z,101119.30
2018-04-24T06:56:40.391Z,101131.94
2018-04-24T06:59:08.682Z,101127.52
2018-04-24T07:01:36.951Z,101137.00
2018-04-24T07:04:05.218Z,101136.70
2018-04-24T07:06:33.502Z,101128.45
2018-04-24T07:09:01.818Z,101129.17
2018-04-24T07:11:30.099Z,101135.70
2018-04-24T07:13:58.370Z,101142.97
2018-04-24T07:16:26.653Z,101127.63
2018-04-24T07:18:54.923Z,101129.87
2018-04-24T07:21:23.235Z,101130.30
2018-04-24T07:23:51.511Z,101132.64
2018-04-24T07:26:19.774Z,101132.89
2018-04-24T07:28:48.064Z,101130.58
2018-04-24T07:31:16.342Z,101126.39
2018-04-24T07:33:44.638Z,101129.29
2018-04-24T07:36:12.921Z,101119.89
2018-04-24T07:38:41.203Z,101126.71
2018-04-24T07:41:10.474Z,101122.44
2018-04-24T07:43:38.738Z,101120.66
2018-04-24T07:46:07.015Z,101107.66
2018-04-24T07:48:35.298Z,101105.75
2018-04-24T07:51:04.525Z,101098.02
2018-04-24T07:53:34.749Z,101110.38
2018-04-24T07:56:07.322Z,101103.41
2018-04-24T07:58:35.614Z,101109.02
2018-04-24T08:01:03.887Z,101110.00
2018-04-24T08:03:32.159Z,101109.45
2018-04-24T08:06:00.443Z,101107.98
2018-04-24T08:08:28.714Z,101105.53
2018-04-24T08:10:57.058Z,101115.30
2018-04-24T08:13:25.342Z,101108.06
2018-04-24T08:15:53.606Z,101113.05
2018-04-24T08:18:21.890Z,101113.68
2018-04-24T08:20:50.171Z,101105.97
2018-04-24T08:23:18.462Z,101112.31
2018-04-24T08:25:46.725Z,101115.20
2018-04-24T08:28:15.007Z,101113.58
2018-04-24T08:30:43.279Z,101109.63
2018-04-24T08:33:11.550Z,101110.00
2018-04-24T08:35:39.839Z,101109.31
2018-04-24T08:38:08.103Z,101103.33
2018-04-24T08:40:36.395Z,101101.56
2018-04-24T08:43:04.668Z,101099.48
2018-04-24T08:45:32.944Z,101097.49
2018-04-24T08:48:01.353Z,101102.48
2018-04-24T08:50:29.522Z,101100.81
2018-04-24T08:52:57.799Z,101093.36
2018-04-24T08:55:26.069Z,101090.09
2018-04-24T08:57:54.354Z,101094.19
2018-04-24T09:00:26.315Z,101092.20
2018-04-24T09:02:54.594Z,101097.97
2018-04-24T09:05:22.858Z,101102.16
2018-04-24T09:07:51.154Z,101101.70
2018-04-24T09:10:19.415Z,101106.56
2018-04-24T09:12:47.706Z,101097.97
2018-04-24T09:15:15.986Z,101100.22
2018-04-24T09:17:44.271Z,101105.40
2018-04-24T09:20:12.559Z,101102.55
2018-04-24T09:22:41.234Z,101100.78
2018-04-24T09:25:09.554Z,101097.45
2018-04-24T09:27:37.890Z,101097.70
2018-04-24T09:30:06.177Z,101103.89
2018-04-24T09:32:34.442Z,101110.09
2018-04-24T09:35:02.734Z,101113.86
2018-04-24T09:37:31.006Z,101104.14
2018-04-24T09:39:59.290Z,101105.61
2018-04-24T09:42:27.571Z,101099.24
2018-04-24T09:44:55.846Z,101101.04
2018-04-24T09:47:24.126Z,101092.26
2018-04-24T09:49:52.399Z,101094.23
2018-04-24T09:52:20.678Z,101092.42
2018-04-24T09:54:48.946Z,101103.73
2018-04-24T09:57:17.235Z,101106.81
2018-04-24T09:59:45.513Z,101110.88
2018-04-24T10:02:13.870Z,101113.02
2018-04-24T10:04:42.055Z,101111.09
2018-04-24T10:07:10.319Z,101116.02
2018-04-24T10:09:38.600Z,101107.98
2018-04-24T10:12:06.867Z,101108.59
2018-04-24T10:14:35.147Z,101108.15
2018-04-24T10:17:03.418Z,101102.58
2018-04-24T10:19:31.710Z,101099.16
2018-04-24T10:21:59.987Z,101087.94
2018-04-24T10:24:28.254Z,101089.45
2018-04-24T10:26:56.535Z,101083.07
2018-04-24T10:29:24.798Z,101089.74
2018-04-24T10:31:53.130Z,101081.17
2018-04-24T10:34:21.398Z,101067.95
2018-04-24T10:36:49.683Z,101067.50
2018-04-24T10:39:17.960Z,101075.09
2018-04-24T10:41:46.242Z,101057.77
2018-04-24T10:44:14.518Z,101058.94
2018-04-24T10:46:42.793Z,101064.01
2018-04-24T10:49:11.068Z,101057.92
2018-04-24T10:51:39.424Z,101051.33
2018-04-24T10:54:07.634Z,101052.70
2018-04-24T10:56:35.923Z,101039.98
2018-04-24T10:59:04.203Z,101040.75
2018-04-24T11:01:32.483Z,101042.98
2018-04-24T11:04:00.780Z,101042.30
2018-04-24T11:06:29.050Z,101042.53
2018-04-24T11:08:57.612Z,101045.23
2018-04-24T11:11:25.882Z,101042.00
2018-04-24T11:13:54.205Z,101038.87
2018-04-24T11:16:22.502Z,101036.05
2018-04-24T11:18:50.801Z,101032.41
2018-04-24T11:21:19.204Z,101034.94
2018-04-24T11:23:47.431Z,101034.64
2018-04-24T11:26:15.706Z,101024.52
2018-04-24T11:28:43.990Z,101026.02
2018-04-24T11:31:12.268Z,101017.41
2018-04-24T11:33:40.544Z,101016.39
2018-04-24T11:36:08.843Z,101008.25
2018-04-24T11:38:37.126Z,100999.16
2018-04-24T11:41:05.409Z,101000.11
2018-04-24T11:43:33.686Z,100999.92
2018-04-24T11:46:01.966Z,100994.11
2018-04-24T11:48:30.285Z,100990.88
2018-04-24T11:50:58.550Z,100983.21
2018-04-24T11:53:26.823Z,100988.48
2018-04-24T11:55:55.102Z,100979.69
2018-04-24T11:58:23.384Z,100980.06
2018-04-24T12:00:51.952Z,100975.30
2018-04-24T12:03:20.225Z,100978.98
2018-04-24T12:05:48.514Z,100973.05
2018-04-24T12:08:16.818Z,100967.69
2018-04-24T12:10:45.078Z,100965.44
2018-04-24T12:13:13.362Z,100954.09
2018-04-24T12:15:41.692Z,100948.11
2018-04-24T12:18:09.926Z,100955.37
2018-04-24T12:20:38.209Z,100942.50
2018-04-24T12:23:06.470Z,100930.70
2018-04-24T12:25:34.747Z,100941.13
2018-04-24T12:28:03.020Z,100940.77
2018-04-24T12:30:31.301Z,100939.41
2018-04-24T12:32:59.611Z,100939.98
2018-04-24T12:35:27.902Z,100940.16
2018-04-24T12:37:56.171Z,100940.41
2018-04-24T12:40:24.438Z,100939.69
2018-04-24T12:42:52.722Z,100936.17
2018-04-24T12:45:20.991Z,100936.78
2018-04-24T12:47:49.270Z,100924.97
2018-04-24T12:50:17.546Z,100922.02
2018-04-24T12:52:45.823Z,100920.95
2018-04-24T12:55:14.094Z,100916.58
2018-04-24T12:57:42.389Z,100920.30
2018-04-24T13:00:10.651Z,100907.53
2018-04-24T13:02:38.939Z,100905.22
2018-04-24T13:05:07.216Z,100894.70
2018-04-24T13:07:35.482Z,100889.87
2018-04-24T13:10:03.771Z,100879.59
2018-04-24T13:12:32.045Z,100880.09
2018-04-24T13:15:00.327Z,100876.31
2018-04-24T13:17:28.603Z,100870.91
2018-04-24T13:19:56.887Z,100859.61
2018-04-24T13:22:25.183Z,100854.93
2018-04-24T13:24:53.470Z,100859.34
2018-04-24T13:27:21.742Z,100851.95
2018-04-24T13:29:50.060Z,100855.41
2018-04-24T13:32:18.322Z,100863.46
2018-04-24T13:34:46.591Z,100864.04
2018-04-24T13:37:14.957Z,100862.78
2018-04-24T13:39:43.160Z,100872.41
2018-04-24T13:42:11.471Z,100874.88
2018-04-24T13:44:39.740Z,100865.69
2018-04-24T13:47:08.019Z,100869.99
2018-04-24T13:49:36.287Z,100866.16
2018-04-24T13:55:02.348Z,100863.85
2018-04-24T13:57:31.018Z,100872.17
2018-04-24T13:59:59.298Z,100869.19
2018-04-24T14:02:27.581Z,100865.56
2018-04-24T14:04:55.852Z,100865.47
2018-04-24T14:07:24.193Z,100864.86
2018-04-24T14:09:52.459Z,100859.48
2018-04-24T14:12:20.768Z,100856.02
2018-04-24T14:14:49.028Z,100854.78
2018-04-24T14:17:17.293Z,100856.72
2018-04-24T14:19:45.575Z,100844.48
2018-04-24T14:22:13.845Z,100845.34
2018-04-24T14:24:42.146Z,100850.14
2018-04-24T14:27:10.409Z,100851.36
2018-04-24T14:29:51.262Z,100849.06
2018-04-24T14:32:19.630Z,100841.77
2018-04-24T14:34:47.913Z,100842.89
2018-04-24T14:37:16.186Z,100845.74
2018-04-24T14:39:44.463Z,100840.61
2018-04-24T14:42:12.738Z,100835.91
2018-04-24T14:44:41.021Z,100836.34
2018-04-24T14:47:09.333Z,100834.73
2018-04-24T14:49:37.614Z,100832.58
2018-04-24T14:52:05.896Z,100825.38
2018-04-24T14:54:34.182Z,100820.79
2018-04-24T14:57:02.474Z,100813.08
2018-04-24T14:59:30.767Z,100817.94
2018-04-24T15:01:59.046Z,100813.78
2018-04-24T15:04:27.321Z,100816.35
2018-04-24T15:06:55.615Z,100812.94
2018-04-24T15:09:23.891Z,100811.08
2018-04-24T15:11:52.186Z,100811.65
2018-04-24T15:14:20.463Z,100813.28
2018-04-24T15:16:48.765Z,100812.27
2018-04-24T15:19:17.022Z,100811.50
2018-04-24T15:21:45.310Z,100818.00
2018-04-24T15:24:13.587Z,100816.53
2018-04-24T15:26:41.871Z,100811.98
2018-04-24T15:29:10.161Z,100812.92
2018-04-24T15:31:38.482Z,100813.25
2018-04-24T15:34:06.775Z,100812.94
2018-04-24T15:36:35.065Z,100806.34
2018-04-24T15:39:03.340Z,100802.73
2018-04-24T15:41:31.614Z,100794.72
2018-04-24T15:43:59.882Z,100799.81
2018-04-24T15:46:28.173Z,100794.66
2018-04-24T15:48:56.441Z,100795.27
2018-04-24T15:51:24.709Z,100795.67
2018-04-24T15:53:53.025Z,100793.95
2018-04-24T15:56:21.293Z,100783.51
2018-04-24T15:58:49.578Z,100781.30
2018-04-24T16:01:17.862Z,100777.62
2018-04-24T16:03:46.138Z,100771.38
2018-04-24T16:06:14.407Z,100774.59
2018-04-24T16:08:42.681Z,100763.50
2018-04-24T16:11:10.960Z,100758.17
2018-04-24T16:13:39.278Z,100750.85
2018-04-24T16:16:07.521Z,100746.53
2018-04-24T16:18:35.817Z,100749.17
2018-04-24T16:21:04.065Z,100749.79
2018-04-24T16:23:32.345Z,100748.22
2018-04-24T16:26:00.613Z,100748.80
2018-04-24T16:28:28.902Z,100740.68
2018-04-24T16:30:57.166Z,100735.01
2018-04-24T16:33:25.446Z,100730.12
2018-04-24T16:35:53.725Z,100731.11
2018-04-24T16:38:22.342Z,100731.20
2018-04-24T16:40:50.625Z,100737.11
2018-04-24T16:43:18.895Z,100739.00
2018-04-24T16:45:47.192Z,100744.22
2018-04-24T16:48:15.461Z,100743.20
2018-04-24T16:50:43.748Z,100744.63
2018-04-24T16:53:12.014Z,100738.64
2018-04-24T16:55:40.297Z,100738.83
2018-04-24T16:58:08.802Z,100730.28
2018-04-24T17:00:37.363Z,100723.09
2018-04-24T17:03:05.554Z,100722.77
2018-04-24T17:05:33.829Z,100721.39
2018-04-24T17:08:02.818Z,100719.33
2018-04-24T17:10:31.098Z,100718.62
2018-04-24T17:12:59.367Z,100714.92
2018-04-24T17:15:27.683Z,100714.30
2018-04-24T17:17:55.937Z,100699.17
2018-04-24T17:20:25.789Z,100706.75
2018-04-24T17:22:54.669Z,100699.69
2018-04-24T17:25:23.002Z,100694.81
2018-04-24T17:27:51.221Z,100694.87
2018-04-24T17:30:19.508Z,100682.62
2018-04-24T17:32:47.789Z,100675.11
2018-04-24T17:35:16.074Z,100669.70
2018-04-24T17:37:44.368Z,100670.48
2018-04-24T17:40:12.639Z,100671.91
2018-04-24T17:42:40.926Z,100667.92
2018-04-24T17:45:09.194Z,100677.06
2018-04-24T17:47:37.475Z,100680.23
2018-04-24T17:50:05.755Z,100678.20
2018-04-24T17:52:34.058Z,100684.27
2018-04-24T17:55:02.322Z,100690.18
2018-04-24T17:57:30.605Z,100680.81
2018-04-24T17:59:58.877Z,100683.20
2018-04-24T18:02:27.161Z,100676.05
2018-04-24T18:04:55.425Z,100679.66
2018-04-24T18:07:23.694Z,100679.64
2018-04-24T18:09:52.126Z,100678.64
2018-04-24T18:12:20.358Z,100682.88
2018-04-24T18:14:48.638Z,100679.89
2018-04-24T18:17:16.906Z,100682.84
2018-04-24T18:19:45.187Z,100679.08
2018-04-24T18:22:13.458Z,100682.95
2018-04-24T18:24:41.832Z,100684.61
2018-04-24T18:27:10.109Z,100676.50
2018-04-24T18:29:38.393Z,100675.19
2018-04-24T18:32:06.658Z,100671.11
2018-04-24T18:34:34.976Z,100668.12
2018-04-24T18:37:03.208Z,100667.16
2018-04-24T18:39:31.498Z,100667.75
2018-04-24T18:42:00.765Z,100669.38
2018-04-24T18:44:29.042Z,100656.63
2018-04-24T18:46:57.313Z,100652.23
2018-04-24T18:49:25.589Z,100654.84
2018-04-24T18:51:53.861Z,100656.13
2018-04-24T18:54:22.165Z,100658.98
2018-04-24T18:56:50.438Z,100658.98
2018-04-24T18:59:18.736Z,100663.21
2018-04-24T19:01:46.991Z,100653.25
2018-04-24T19:04:15.269Z,100656.13
2018-04-24T19:06:43.549Z,100649.11
2018-04-24T19:09:11.832Z,100651.33
2018-04-24T19:11:40.139Z,100655.64
2018-04-24T19:14:14.093Z,100651.77
2018-04-24T19:16:42.397Z,100652.84
2018-04-24T19:19:16.143Z,100651.55
2018-04-24T19:21:44.450Z,100653.19
2018-04-24T19:24:18.254Z,100653.91
2018-04-24T19:26:46.538Z,100649.38
2018-04-24T19:29:14.822Z,100646.53
2018-04-24T19:31:48.667Z,100641.91
2018-04-24T19:34:16.932Z,100647.20
2018-04-24T19:36:45.214Z,100639.56
2018-04-24T19:39:18.993Z,100652.77
2018-04-24T19:41:53.650Z,100646.58
2018-04-24T19:44:21.905Z,100648.27
2018-04-24T19:46:50.178Z,100642.64
2018-04-24T19:49:24.262Z,100641.34
2018-04-24T19:51:52.671Z,100639.05
2018-04-24T19:54:20.954Z,100641.69
2018-04-24T19:56:49.229Z,100642.64
2018-04-24T19:59:17.506Z,100631.41
2018-04-24T20:01:45.774Z,100627.66
2018-04-24T20:04:14.053Z,100624.50
2018-04-24T20:06:42.398Z,100626.61
2018-04-24T20:09:10.694Z,100623.16
2018-04-24T20:11:38.974Z,100632.83
2018-04-24T20:14:07.243Z,100631.52
2018-04-24T20:16:35.522Z,100627.58
2018-04-24T20:19:03.824Z,100626.86
2018-04-24T20:21:32.097Z,100622.82
2018-04-24T20:24:00.369Z,100622.98
2018-04-24T20:26:28.646Z,100613.64
2018-04-24T20:28:56.918Z,100618.77
2018-04-24T20:31:25.198Z,100616.66
2018-04-24T20:33:53.669Z,100614.77
2018-04-24T20:36:21.966Z,100618.93
2018-04-24T20:38:50.243Z,100610.88
2018-04-24T20:41:20.105Z,100616.36
2018-04-24T20:43:48.400Z,100616.13
2018-04-24T20:46:16.689Z,100610.69
2018-04-24T20:48:44.961Z,100605.56
2018-04-24T20:51:13.249Z,100610.80
2018-04-24T20:53:41.566Z,100612.24
2018-04-24T20:56:09.814Z,100602.56
2018-04-24T20:58:38.081Z,100598.45
2018-04-24T21:01:06.364Z,100598.81
2018-04-24T21:03:34.634Z,100594.25
2018-04-24T21:06:02.921Z,100586.16
2018-04-24T21:08:31.201Z,100593.63
2018-04-24T21:10:59.463Z,100583.73
2018-04-24T21:13:27.746Z,100588.81
2018-04-24T21:15:56.083Z,100589.26
2018-04-24T21:18:24.366Z,100578.47
2018-04-24T21:20:52.649Z,100584.55
2018-04-24T21:23:20.939Z,100582.48
2018-04-24T21:25:49.210Z,100582.87
2018-04-24T21:28:17.500Z,100584.67
2018-04-24T21:30:45.875Z,100578.17
2018-04-24T21:33:14.163Z,100577.83
2018-04-24T21:35:42.441Z,100581.23
2018-04-24T21:38:10.721Z,100582.80
2018-04-24T21:40:38.997Z,100574.34
2018-04-24T21:43:07.278Z,100577.50
2018-04-24T21:45:35.550Z,100575.73
2018-04-24T21:48:03.831Z,100568.53
2018-04-24T21:50:32.094Z,100566.89
2018-04-24T21:53:00.373Z,100566.55
2018-04-24T21:55:28.649Z,100566.96
2018-04-24T21:57:56.921Z,100562.83
2018-04-24T22:00:25.206Z,100568.45
2018-04-24T22:02:53.487Z,100558.92
2018-04-24T22:05:21.758Z,100560.91
2018-04-24T22:07:50.028Z,100554.55
2018-04-24T22:10:18.310Z,100541.47
2018-04-24T22:12:46.581Z,100548.02
2018-04-24T22:15:14.850Z,100544.80
2018-04-24T22:17:43.130Z,100535.36
2018-04-24T22:20:11.413Z,100541.89
2018-04-24T22:22:39.752Z,100542.20
2018-04-24T22:25:08.099Z,100537.53
2018-04-24T22:27:36.378Z,100539.55
2018-04-24T22:30:05.245Z,100532.91
2018-04-24T22:32:33.517Z,100531.98
2018-04-24T22:35:01.797Z,100531.24
2018-04-24T22:37:30.071Z,100528.48
2018-04-24T22:39:58.351Z,100530.14
2018-04-24T22:42:26.611Z,100527.16
2018-04-24T22:44:54.913Z,100527.16
2018-04-24T22:47:23.194Z,100516.89
2018-04-24T22:49:51.475Z,100516.22
2018-04-24T22:52:19.787Z,100516.84
2018-04-24T22:54:48.030Z,100514.89
2018-04-24T22:57:16.309Z,100511.50
2018-04-24T22:59:44.573Z,100510.58
2018-04-24T23:02:12.857Z,100508.63
2018-04-24T23:04:41.146Z,100510.80
2018-04-24T23:07:09.413Z,100504.16
2018-04-24T23:09:37.686Z,100498.08
2018-04-24T23:12:17.813Z,100499.13
2018-04-24T23:15:03.994Z,100487.59
2018-04-24T23:17:49.897Z,100481.30
2018-04-24T23:20:23.570Z,100476.91
2018-04-24T23:22:51.562Z,100473.60
2018-04-24T23:25:19.836Z,100461.75
2018-04-24T23:27:48.113Z,100457.53
2018-04-24T23:30:16.397Z,100450.11
2018-04-24T23:32:44.665Z,100445.97
2018-04-24T23:35:12.962Z,100445.78
2018-04-24T23:37:41.238Z,100440.84
2018-04-24T23:40:09.507Z,100443.31
2018-04-24T23:42:37.890Z,100441.85
2018-04-24T23:45:06.165Z,100443.31
2018-04-24T23:47:34.445Z,100439.14
2018-04-24T23:50:02.717Z,100438.98
2018-04-24T23:52:30.998Z,100441.18
2018-04-24T23:54:59.270Z,100442.82
2018-04-24T23:57:27.580Z,100438.73
2018-04-24T23:59:55.857Z,100440.70
